sensor_id;sensor_type;location;lat;lon;timestamp;P1;durP1;ratioP1;P2;durP2;ratioP2
71303;SDS011;59091;47.446;19.148;2023-12-14T00:01:56;24.60;;;14.55;;
71303;SDS011;59091;47.446;19.148;2023-12-14T00:04:22;28.33;;;14.63;;
71303;SDS011;59091;47.446;19.148;2023-12-14T00:06:47;24.77;;;14.40;;
71303;SDS011;59091;47.446;19.148;2023-12-14T00:09:13;23.30;;;13.32;;
71303;SDS011;59091;47.446;19.148;2023-12-14T00:11:38;19.27;;;12.85;;
71303;SDS011;59091;47.446;19.148;2023-12-14T00:14:04;23.52;;;12.98;;
71303;SDS011;59091;47.446;19.148;2023-12-14T00:16:30;21.75;;;12.90;;
71303;SDS011;59091;47.446;19.148;2023-12-14T00:18:55;21.17;;;13.20;;
71303;SDS011;59091;47.446;19.148;2023-12-14T00:21:21;21.13;;;13.82;;
71303;SDS011;59091;47.446;19.148;2023-12-14T00:23:46;22.77;;;14.40;;
71303;SDS011;59091;47.446;19.148;2023-12-14T00:26:12;23.85;;;15.02;;
71303;SDS011;59091;47.446;19.148;2023-12-14T00:28:37;22.83;;;14.35;;
71303;SDS011;59091;47.446;19.148;2023-12-14T00:31:03;24.25;;;14.50;;
71303;SDS011;59091;47.446;19.148;2023-12-14T00:33:29;22.30;;;13.90;;
71303;SDS011;59091;47.446;19.148;2023-12-14T00:35:54;22.40;;;13.70;;
71303;SDS011;59091;47.446;19.148;2023-12-14T00:38:19;28.25;;;15.35;;
71303;SDS011;59091;47.446;19.148;2023-12-14T00:40:45;27.98;;;15.55;;
71303;SDS011;59091;47.446;19.148;2023-12-14T00:43:10;24.95;;;14.80;;
71303;SDS011;59091;47.446;19.148;2023-12-14T00:45:36;23.67;;;14.43;;
71303;SDS011;59091;47.446;19.148;2023-12-14T00:48:01;22.00;;;13.73;;
71303;SDS011;59091;47.446;19.148;2023-12-14T00:50:27;24.85;;;13.85;;
71303;SDS011;59091;47.446;19.148;2023-12-14T00:52:52;23.20;;;13.20;;
71303;SDS011;59091;47.446;19.148;2023-12-14T00:55:18;20.75;;;13.40;;
71303;SDS011;59091;47.446;19.148;2023-12-14T00:57:43;21.98;;;13.23;;
71303;SDS011;59091;47.446;19.148;2023-12-14T01:00:09;23.33;;;12.90;;
71303;SDS011;59091;47.446;19.148;2023-12-14T01:02:35;20.65;;;12.30;;
71303;SDS011;59091;47.446;19.148;2023-12-14T01:05:01;16.77;;;12.23;;
71303;SDS011;59091;47.446;19.148;2023-12-14T01:07:26;19.58;;;12.77;;
71303;SDS011;59091;47.446;19.148;2023-12-14T01:09:52;21.88;;;12.40;;
71303;SDS011;59091;47.446;19.148;2023-12-14T01:12:17;18.98;;;12.55;;
71303;SDS011;59091;47.446;19.148;2023-12-14T01:14:43;22.05;;;13.85;;
71303;SDS011;59091;47.446;19.148;2023-12-14T01:17:08;21.70;;;13.50;;
71303;SDS011;59091;47.446;19.148;2023-12-14T01:19:33;21.98;;;13.07;;
71303;SDS011;59091;47.446;19.148;2023-12-14T01:21:59;20.50;;;12.20;;
71303;SDS011;59091;47.446;19.148;2023-12-14T01:24:24;22.27;;;13.35;;
71303;SDS011;59091;47.446;19.148;2023-12-14T01:26:50;20.90;;;12.15;;
71303;SDS011;59091;47.446;19.148;2023-12-14T01:29:15;17.42;;;12.10;;
71303;SDS011;59091;47.446;19.148;2023-12-14T01:31:40;17.77;;;11.20;;
71303;SDS011;59091;47.446;19.148;2023-12-14T01:34:06;14.98;;;10.13;;
71303;SDS011;59091;47.446;19.148;2023-12-14T01:36:31;14.35;;;10.00;;
71303;SDS011;59091;47.446;19.148;2023-12-14T01:38:57;13.13;;;9.75;;
71303;SDS011;59091;47.446;19.148;2023-12-14T01:41:22;12.85;;;9.43;;
71303;SDS011;59091;47.446;19.148;2023-12-14T01:43:47;13.80;;;10.05;;
71303;SDS011;59091;47.446;19.148;2023-12-14T01:46:13;13.85;;;9.63;;
71303;SDS011;59091;47.446;19.148;2023-12-14T01:48:40;13.77;;;9.80;;
71303;SDS011;59091;47.446;19.148;2023-12-14T01:51:05;15.15;;;9.18;;
71303;SDS011;59091;47.446;19.148;2023-12-14T01:53:31;16.52;;;9.57;;
71303;SDS011;59091;47.446;19.148;2023-12-14T01:55:56;14.07;;;9.95;;
71303;SDS011;59091;47.446;19.148;2023-12-14T01:58:22;14.07;;;9.95;;
71303;SDS011;59091;47.446;19.148;2023-12-14T02:03:44;12.23;;;9.07;;
71303;SDS011;59091;47.446;19.148;2023-12-14T02:06:11;14.50;;;9.85;;
71303;SDS011;59091;47.446;19.148;2023-12-14T02:08:36;12.77;;;8.88;;
71303;SDS011;59091;47.446;19.148;2023-12-14T02:11:01;16.38;;;9.57;;
71303;SDS011;59091;47.446;19.148;2023-12-14T02:13:27;13.38;;;9.15;;
71303;SDS011;59091;47.446;19.148;2023-12-14T02:15:52;14.48;;;9.68;;
71303;SDS011;59091;47.446;19.148;2023-12-14T02:18:18;17.17;;;10.15;;
71303;SDS011;59091;47.446;19.148;2023-12-14T02:20:44;16.98;;;10.10;;
71303;SDS011;59091;47.446;19.148;2023-12-14T02:23:09;16.02;;;10.13;;
71303;SDS011;59091;47.446;19.148;2023-12-14T02:25:35;14.90;;;9.93;;
71303;SDS011;59091;47.446;19.148;2023-12-14T02:28:00;17.15;;;9.93;;
71303;SDS011;59091;47.446;19.148;2023-12-14T02:30:26;18.70;;;10.15;;
71303;SDS011;59091;47.446;19.148;2023-12-14T02:32:51;18.20;;;10.25;;
71303;SDS011;59091;47.446;19.148;2023-12-14T02:35:16;17.45;;;10.13;;
71303;SDS011;59091;47.446;19.148;2023-12-14T02:37:43;15.60;;;10.18;;
71303;SDS011;59091;47.446;19.148;2023-12-14T02:40:09;20.35;;;11.20;;
71303;SDS011;59091;47.446;19.148;2023-12-14T02:42:35;18.67;;;10.70;;
71303;SDS011;59091;47.446;19.148;2023-12-14T02:45:01;17.70;;;10.45;;
71303;SDS011;59091;47.446;19.148;2023-12-14T02:47:27;20.45;;;11.50;;
71303;SDS011;59091;47.446;19.148;2023-12-14T02:49:53;16.23;;;10.32;;
71303;SDS011;59091;47.446;19.148;2023-12-14T02:52:19;17.23;;;10.85;;
71303;SDS011;59091;47.446;19.148;2023-12-14T02:54:44;16.50;;;10.55;;
71303;SDS011;59091;47.446;19.148;2023-12-14T02:57:10;16.15;;;10.18;;
71303;SDS011;59091;47.446;19.148;2023-12-14T02:59:35;19.85;;;11.32;;
71303;SDS011;59091;47.446;19.148;2023-12-14T03:02:01;18.92;;;11.32;;
71303;SDS011;59091;47.446;19.148;2023-12-14T03:04:26;22.80;;;12.00;;
71303;SDS011;59091;47.446;19.148;2023-12-14T03:06:52;20.83;;;11.43;;
71303;SDS011;59091;47.446;19.148;2023-12-14T03:09:17;20.10;;;11.70;;
71303;SDS011;59091;47.446;19.148;2023-12-14T03:11:44;21.65;;;12.05;;
71303;SDS011;59091;47.446;19.148;2023-12-14T03:14:10;23.58;;;12.32;;
71303;SDS011;59091;47.446;19.148;2023-12-14T03:16:36;23.48;;;12.68;;
71303;SDS011;59091;47.446;19.148;2023-12-14T03:19:01;23.33;;;12.23;;
71303;SDS011;59091;47.446;19.148;2023-12-14T03:21:28;21.02;;;11.88;;
71303;SDS011;59091;47.446;19.148;2023-12-14T03:23:54;21.35;;;12.02;;
71303;SDS011;59091;47.446;19.148;2023-12-14T03:26:19;22.30;;;12.27;;
71303;SDS011;59091;47.446;19.148;2023-12-14T03:28:44;21.98;;;12.10;;
71303;SDS011;59091;47.446;19.148;2023-12-14T03:31:10;22.55;;;12.68;;
71303;SDS011;59091;47.446;19.148;2023-12-14T03:33:38;21.73;;;12.10;;
71303;SDS011;59091;47.446;19.148;2023-12-14T03:36:04;19.67;;;11.38;;
71303;SDS011;59091;47.446;19.148;2023-12-14T03:38:29;24.75;;;12.43;;
71303;SDS011;59091;47.446;19.148;2023-12-14T03:40:55;21.42;;;12.40;;
71303;SDS011;59091;47.446;19.148;2023-12-14T03:43:20;26.98;;;14.35;;
71303;SDS011;59091;47.446;19.148;2023-12-14T03:45:46;25.05;;;13.63;;
71303;SDS011;59091;47.446;19.148;2023-12-14T03:48:11;23.73;;;13.32;;
71303;SDS011;59091;47.446;19.148;2023-12-14T03:50:37;24.27;;;13.65;;
71303;SDS011;59091;47.446;19.148;2023-12-14T03:53:02;22.52;;;12.30;;
71303;SDS011;59091;47.446;19.148;2023-12-14T03:55:28;20.40;;;12.02;;
71303;SDS011;59091;47.446;19.148;2023-12-14T03:57:53;23.15;;;12.95;;
71303;SDS011;59091;47.446;19.148;2023-12-14T04:00:18;20.52;;;12.27;;
71303;SDS011;59091;47.446;19.148;2023-12-14T04:02:44;22.40;;;12.80;;
71303;SDS011;59091;47.446;19.148;2023-12-14T04:05:09;21.55;;;12.85;;
71303;SDS011;59091;47.446;19.148;2023-12-14T04:07:35;23.88;;;12.70;;
71303;SDS011;59091;47.446;19.148;2023-12-14T04:10:14;23.95;;;12.77;;
71303;SDS011;59091;47.446;19.148;2023-12-14T04:12:40;24.35;;;13.25;;
71303;SDS011;59091;47.446;19.148;2023-12-14T04:15:06;23.85;;;13.07;;
71303;SDS011;59091;47.446;19.148;2023-12-14T04:17:33;24.92;;;12.52;;
71303;SDS011;59091;47.446;19.148;2023-12-14T04:19:59;23.45;;;12.40;;
71303;SDS011;59091;47.446;19.148;2023-12-14T04:22:25;20.55;;;11.82;;
71303;SDS011;59091;47.446;19.148;2023-12-14T04:24:51;24.05;;;12.82;;
71303;SDS011;59091;47.446;19.148;2023-12-14T04:27:17;22.45;;;12.00;;
71303;SDS011;59091;47.446;19.148;2023-12-14T04:29:42;23.05;;;12.05;;
71303;SDS011;59091;47.446;19.148;2023-12-14T04:32:08;21.67;;;12.45;;
71303;SDS011;59091;47.446;19.148;2023-12-14T04:34:34;21.52;;;12.35;;
71303;SDS011;59091;47.446;19.148;2023-12-14T04:36:59;20.70;;;11.90;;
71303;SDS011;59091;47.446;19.148;2023-12-14T04:39:25;22.50;;;12.13;;
71303;SDS011;59091;47.446;19.148;2023-12-14T04:41:51;22.95;;;11.88;;
71303;SDS011;59091;47.446;19.148;2023-12-14T04:44:17;29.80;;;14.07;;
71303;SDS011;59091;47.446;19.148;2023-12-14T04:46:43;28.00;;;13.88;;
71303;SDS011;59091;47.446;19.148;2023-12-14T04:49:09;26.52;;;12.55;;
71303;SDS011;59091;47.446;19.148;2023-12-14T04:51:35;23.35;;;13.38;;
71303;SDS011;59091;47.446;19.148;2023-12-14T04:54:00;23.75;;;13.73;;
71303;SDS011;59091;47.446;19.148;2023-12-14T04:56:25;25.15;;;13.65;;
71303;SDS011;59091;47.446;19.148;2023-12-14T04:58:51;26.92;;;13.68;;
71303;SDS011;59091;47.446;19.148;2023-12-14T05:01:16;23.67;;;13.15;;
71303;SDS011;59091;47.446;19.148;2023-12-14T05:03:42;25.38;;;13.15;;
71303;SDS011;59091;47.446;19.148;2023-12-14T05:06:07;25.60;;;13.20;;
71303;SDS011;59091;47.446;19.148;2023-12-14T05:08:33;23.35;;;13.15;;
71303;SDS011;59091;47.446;19.148;2023-12-14T05:10:58;25.48;;;13.80;;
71303;SDS011;59091;47.446;19.148;2023-12-14T05:13:24;26.80;;;14.07;;
71303;SDS011;59091;47.446;19.148;2023-12-14T05:15:50;24.92;;;13.70;;
71303;SDS011;59091;47.446;19.148;2023-12-14T05:18:17;23.58;;;12.90;;
71303;SDS011;59091;47.446;19.148;2023-12-14T05:20:42;23.15;;;13.00;;
71303;SDS011;59091;47.446;19.148;2023-12-14T05:23:08;27.50;;;12.77;;
71303;SDS011;59091;47.446;19.148;2023-12-14T05:25:33;24.40;;;13.32;;
71303;SDS011;59091;47.446;19.148;2023-12-14T05:27:59;26.38;;;13.55;;
71303;SDS011;59091;47.446;19.148;2023-12-14T05:30:24;22.67;;;12.48;;
71303;SDS011;59091;47.446;19.148;2023-12-14T05:32:50;25.25;;;13.18;;
71303;SDS011;59091;47.446;19.148;2023-12-14T05:35:15;23.33;;;13.10;;
71303;SDS011;59091;47.446;19.148;2023-12-14T05:37:41;25.38;;;14.02;;
71303;SDS011;59091;47.446;19.148;2023-12-14T05:40:09;24.88;;;13.70;;
71303;SDS011;59091;47.446;19.148;2023-12-14T05:42:35;26.00;;;13.15;;
71303;SDS011;59091;47.446;19.148;2023-12-14T05:45:00;25.90;;;14.20;;
71303;SDS011;59091;47.446;19.148;2023-12-14T05:47:26;27.20;;;14.18;;
71303;SDS011;59091;47.446;19.148;2023-12-14T05:49:52;28.67;;;13.70;;
71303;SDS011;59091;47.446;19.148;2023-12-14T05:52:17;23.95;;;13.52;;
71303;SDS011;59091;47.446;19.148;2023-12-14T05:54:42;23.92;;;12.50;;
71303;SDS011;59091;47.446;19.148;2023-12-14T05:57:08;25.02;;;13.07;;
71303;SDS011;59091;47.446;19.148;2023-12-14T05:59:33;26.40;;;13.55;;
71303;SDS011;59091;47.446;19.148;2023-12-14T06:01:59;24.48;;;14.68;;
71303;SDS011;59091;47.446;19.148;2023-12-14T06:04:25;28.27;;;15.27;;
71303;SDS011;59091;47.446;19.148;2023-12-14T06:06:52;25.38;;;14.40;;
71303;SDS011;59091;47.446;19.148;2023-12-14T06:09:17;26.17;;;13.80;;
71303;SDS011;59091;47.446;19.148;2023-12-14T06:11:46;26.30;;;14.15;;
71303;SDS011;59091;47.446;19.148;2023-12-14T06:14:12;26.15;;;13.93;;
71303;SDS011;59091;47.446;19.148;2023-12-14T06:16:37;25.05;;;14.20;;
71303;SDS011;59091;47.446;19.148;2023-12-14T06:19:03;24.33;;;14.27;;
71303;SDS011;59091;47.446;19.148;2023-12-14T06:21:28;26.40;;;14.52;;
71303;SDS011;59091;47.446;19.148;2023-12-14T06:23:55;24.45;;;13.80;;
71303;SDS011;59091;47.446;19.148;2023-12-14T06:26:21;25.85;;;14.32;;
71303;SDS011;59091;47.446;19.148;2023-12-14T06:28:47;27.08;;;14.55;;
71303;SDS011;59091;47.446;19.148;2023-12-14T06:31:15;32.35;;;15.70;;
71303;SDS011;59091;47.446;19.148;2023-12-14T06:33:42;27.00;;;14.50;;
71303;SDS011;59091;47.446;19.148;2023-12-14T06:36:08;27.23;;;15.07;;
71303;SDS011;59091;47.446;19.148;2023-12-14T06:38:34;26.48;;;14.30;;
71303;SDS011;59091;47.446;19.148;2023-12-14T06:41:00;27.83;;;15.27;;
71303;SDS011;59091;47.446;19.148;2023-12-14T06:43:27;27.25;;;15.00;;
71303;SDS011;59091;47.446;19.148;2023-12-14T06:45:52;30.17;;;15.00;;
71303;SDS011;59091;47.446;19.148;2023-12-14T06:48:18;28.02;;;14.50;;
71303;SDS011;59091;47.446;19.148;2023-12-14T06:50:44;29.13;;;14.90;;
71303;SDS011;59091;47.446;19.148;2023-12-14T06:53:09;28.67;;;14.63;;
71303;SDS011;59091;47.446;19.148;2023-12-14T06:55:34;25.77;;;14.45;;
71303;SDS011;59091;47.446;19.148;2023-12-14T06:58:01;32.33;;;15.40;;
71303;SDS011;59091;47.446;19.148;2023-12-14T07:00:26;25.80;;;14.77;;
71303;SDS011;59091;47.446;19.148;2023-12-14T07:02:54;25.80;;;15.02;;
71303;SDS011;59091;47.446;19.148;2023-12-14T07:05:20;30.98;;;15.90;;
71303;SDS011;59091;47.446;19.148;2023-12-14T07:07:45;30.17;;;16.40;;
71303;SDS011;59091;47.446;19.148;2023-12-14T07:10:10;31.67;;;15.85;;
71303;SDS011;59091;47.446;19.148;2023-12-14T07:12:36;28.58;;;14.95;;
71303;SDS011;59091;47.446;19.148;2023-12-14T07:15:01;29.90;;;15.85;;
71303;SDS011;59091;47.446;19.148;2023-12-14T07:17:27;28.63;;;15.25;;
71303;SDS011;59091;47.446;19.148;2023-12-14T07:19:52;28.77;;;15.02;;
71303;SDS011;59091;47.446;19.148;2023-12-14T07:22:18;26.42;;;14.90;;
71303;SDS011;59091;47.446;19.148;2023-12-14T07:24:44;27.63;;;15.10;;
71303;SDS011;59091;47.446;19.148;2023-12-14T07:27:09;26.73;;;15.50;;
71303;SDS011;59091;47.446;19.148;2023-12-14T07:29:35;28.70;;;15.85;;
71303;SDS011;59091;47.446;19.148;2023-12-14T07:32:00;28.95;;;15.93;;
71303;SDS011;59091;47.446;19.148;2023-12-14T07:34:26;27.42;;;14.35;;
71303;SDS011;59091;47.446;19.148;2023-12-14T07:36:53;28.33;;;14.88;;
71303;SDS011;59091;47.446;19.148;2023-12-14T07:39:19;29.02;;;16.30;;
71303;SDS011;59091;47.446;19.148;2023-12-14T07:41:44;23.95;;;10.75;;
71303;SDS011;59091;47.446;19.148;2023-12-14T07:44:10;22.27;;;14.13;;
71303;SDS011;59091;47.446;19.148;2023-12-14T07:46:35;26.02;;;15.13;;
71303;SDS011;59091;47.446;19.148;2023-12-14T07:49:04;26.27;;;15.13;;
71303;SDS011;59091;47.446;19.148;2023-12-14T07:51:30;26.77;;;14.68;;
71303;SDS011;59091;47.446;19.148;2023-12-14T07:53:55;24.02;;;15.05;;
71303;SDS011;59091;47.446;19.148;2023-12-14T07:56:20;25.77;;;15.60;;
71303;SDS011;59091;47.446;19.148;2023-12-14T07:58:50;27.92;;;15.93;;
71303;SDS011;59091;47.446;19.148;2023-12-14T08:01:15;26.20;;;15.82;;
71303;SDS011;59091;47.446;19.148;2023-12-14T08:03:41;25.88;;;16.20;;
71303;SDS011;59091;47.446;19.148;2023-12-14T08:06:06;26.80;;;15.93;;
71303;SDS011;59091;47.446;19.148;2023-12-14T08:08:32;26.85;;;15.80;;
71303;SDS011;59091;47.446;19.148;2023-12-14T08:10:57;29.40;;;16.63;;
71303;SDS011;59091;47.446;19.148;2023-12-14T08:13:23;26.80;;;16.60;;
71303;SDS011;59091;47.446;19.148;2023-12-14T08:15:48;34.72;;;18.48;;
71303;SDS011;59091;47.446;19.148;2023-12-14T08:18:13;33.42;;;17.95;;
71303;SDS011;59091;47.446;19.148;2023-12-14T08:20:39;33.28;;;17.88;;
71303;SDS011;59091;47.446;19.148;2023-12-14T08:23:04;28.13;;;17.20;;
71303;SDS011;59091;47.446;19.148;2023-12-14T08:25:30;33.65;;;17.45;;
71303;SDS011;59091;47.446;19.148;2023-12-14T08:27:55;27.95;;;15.88;;
71303;SDS011;59091;47.446;19.148;2023-12-14T08:30:21;28.92;;;17.45;;
71303;SDS011;59091;47.446;19.148;2023-12-14T08:32:46;30.80;;;17.40;;
71303;SDS011;59091;47.446;19.148;2023-12-14T08:35:12;30.52;;;17.90;;
71303;SDS011;59091;47.446;19.148;2023-12-14T08:37:37;29.42;;;18.08;;
71303;SDS011;59091;47.446;19.148;2023-12-14T08:40:03;30.17;;;17.75;;
71303;SDS011;59091;47.446;19.148;2023-12-14T08:42:30;32.22;;;18.27;;
71303;SDS011;59091;47.446;19.148;2023-12-14T08:44:56;30.35;;;18.25;;
71303;SDS011;59091;47.446;19.148;2023-12-14T08:47:21;30.90;;;17.17;;
71303;SDS011;59091;47.446;19.148;2023-12-14T08:49:47;37.72;;;18.77;;
71303;SDS011;59091;47.446;19.148;2023-12-14T08:52:12;33.25;;;18.75;;
71303;SDS011;59091;47.446;19.148;2023-12-14T08:54:39;30.40;;;18.00;;
71303;SDS011;59091;47.446;19.148;2023-12-14T08:57:05;33.60;;;19.10;;
71303;SDS011;59091;47.446;19.148;2023-12-14T08:59:31;31.95;;;18.35;;
71303;SDS011;59091;47.446;19.148;2023-12-14T09:01:56;35.13;;;19.45;;
71303;SDS011;59091;47.446;19.148;2023-12-14T09:04:22;32.55;;;18.75;;
71303;SDS011;59091;47.446;19.148;2023-12-14T09:06:47;32.92;;;20.02;;
71303;SDS011;59091;47.446;19.148;2023-12-14T09:09:13;34.63;;;18.50;;
71303;SDS011;59091;47.446;19.148;2023-12-14T09:11:38;26.45;;;16.58;;
71303;SDS011;59091;47.446;19.148;2023-12-14T09:14:05;28.02;;;16.98;;
71303;SDS011;59091;47.446;19.148;2023-12-14T09:16:30;28.23;;;16.23;;
71303;SDS011;59091;47.446;19.148;2023-12-14T09:18:55;35.40;;;18.05;;
71303;SDS011;59091;47.446;19.148;2023-12-14T09:21:21;33.28;;;18.63;;
71303;SDS011;59091;47.446;19.148;2023-12-14T09:23:46;27.48;;;16.88;;
71303;SDS011;59091;47.446;19.148;2023-12-14T09:26:14;33.83;;;18.67;;
71303;SDS011;59091;47.446;19.148;2023-12-14T09:28:39;34.92;;;17.65;;
71303;SDS011;59091;47.446;19.148;2023-12-14T09:31:05;28.77;;;16.42;;
71303;SDS011;59091;47.446;19.148;2023-12-14T09:33:30;20.30;;;13.93;;
71303;SDS011;59091;47.446;19.148;2023-12-14T09:35:56;21.30;;;13.40;;
71303;SDS011;59091;47.446;19.148;2023-12-14T09:38:22;20.90;;;13.60;;
71303;SDS011;59091;47.446;19.148;2023-12-14T09:40:47;23.27;;;13.52;;
71303;SDS011;59091;47.446;19.148;2023-12-14T09:43:12;24.55;;;14.70;;
71303;SDS011;59091;47.446;19.148;2023-12-14T09:45:38;19.15;;;13.63;;
71303;SDS011;59091;47.446;19.148;2023-12-14T09:48:09;21.58;;;13.27;;
71303;SDS011;59091;47.446;19.148;2023-12-14T09:50:35;21.17;;;14.02;;
71303;SDS011;59091;47.446;19.148;2023-12-14T09:53:01;22.00;;;14.13;;
71303;SDS011;59091;47.446;19.148;2023-12-14T09:55:27;20.48;;;13.48;;
71303;SDS011;59091;47.446;19.148;2023-12-14T09:57:52;19.55;;;13.00;;
71303;SDS011;59091;47.446;19.148;2023-12-14T10:00:33;20.42;;;13.38;;
71303;SDS011;59091;47.446;19.148;2023-12-14T10:03:17;19.90;;;12.88;;
71303;SDS011;59091;47.446;19.148;2023-12-14T10:05:46;21.48;;;13.30;;
71303;SDS011;59091;47.446;19.148;2023-12-14T10:08:13;21.17;;;13.68;;
71303;SDS011;59091;47.446;19.148;2023-12-14T10:10:39;21.90;;;13.43;;
71303;SDS011;59091;47.446;19.148;2023-12-14T10:13:04;20.02;;;12.73;;
71303;SDS011;59091;47.446;19.148;2023-12-14T10:15:36;21.05;;;13.32;;
71303;SDS011;59091;47.446;19.148;2023-12-14T10:18:05;20.42;;;13.30;;
71303;SDS011;59091;47.446;19.148;2023-12-14T10:20:31;20.90;;;13.43;;
71303;SDS011;59091;47.446;19.148;2023-12-14T10:22:57;21.45;;;13.38;;
71303;SDS011;59091;47.446;19.148;2023-12-14T10:25:22;19.38;;;13.18;;
71303;SDS011;59091;47.446;19.148;2023-12-14T10:27:48;21.55;;;13.10;;
71303;SDS011;59091;47.446;19.148;2023-12-14T10:30:17;21.75;;;13.50;;
71303;SDS011;59091;47.446;19.148;2023-12-14T10:32:45;18.35;;;12.35;;
71303;SDS011;59091;47.446;19.148;2023-12-14T10:35:15;23.55;;;13.55;;
71303;SDS011;59091;47.446;19.148;2023-12-14T10:37:42;20.38;;;13.27;;
71303;SDS011;59091;47.446;19.148;2023-12-14T10:40:11;20.15;;;13.23;;
71303;SDS011;59091;47.446;19.148;2023-12-14T10:42:38;24.08;;;14.52;;
71303;SDS011;59091;47.446;19.148;2023-12-14T10:45:06;16.65;;;11.30;;
71303;SDS011;59091;47.446;19.148;2023-12-14T10:47:34;18.52;;;12.10;;
71303;SDS011;59091;47.446;19.148;2023-12-14T10:50:00;19.73;;;12.52;;
71303;SDS011;59091;47.446;19.148;2023-12-14T10:52:26;17.85;;;11.73;;
71303;SDS011;59091;47.446;19.148;2023-12-14T10:54:56;19.92;;;13.18;;
71303;SDS011;59091;47.446;19.148;2023-12-14T10:57:25;19.35;;;12.95;;
71303;SDS011;59091;47.446;19.148;2023-12-14T10:59:57;18.58;;;12.05;;
71303;SDS011;59091;47.446;19.148;2023-12-14T11:02:24;22.48;;;12.88;;
71303;SDS011;59091;47.446;19.148;2023-12-14T11:04:57;16.30;;;11.57;;
71303;SDS011;59091;47.446;19.148;2023-12-14T11:08:10;19.10;;;11.70;;
71303;SDS011;59091;47.446;19.148;2023-12-14T11:10:22;16.65;;;11.30;;
71303;SDS011;59091;47.446;19.148;2023-12-14T11:13:02;15.23;;;10.73;;
71303;SDS011;59091;47.446;19.148;2023-12-14T11:15:33;17.92;;;10.27;;
71303;SDS011;59091;47.446;19.148;2023-12-14T11:23:11;18.08;;;11.45;;
71303;SDS011;59091;47.446;19.148;2023-12-14T11:25:54;18.52;;;11.30;;
71303;SDS011;59091;47.446;19.148;2023-12-14T11:28:28;19.25;;;11.70;;
71303;SDS011;59091;47.446;19.148;2023-12-14T11:30:53;18.15;;;12.30;;
71303;SDS011;59091;47.446;19.148;2023-12-14T11:33:19;21.48;;;13.50;;
71303;SDS011;59091;47.446;19.148;2023-12-14T11:35:45;19.20;;;12.82;;
71303;SDS011;59091;47.446;19.148;2023-12-14T11:38:10;19.27;;;12.40;;
71303;SDS011;59091;47.446;19.148;2023-12-14T11:40:41;22.92;;;13.23;;
71303;SDS011;59091;47.446;19.148;2023-12-14T11:43:07;17.92;;;11.63;;
71303;SDS011;59091;47.446;19.148;2023-12-14T11:45:37;18.67;;;12.18;;
71303;SDS011;59091;47.446;19.148;2023-12-14T11:48:03;19.15;;;12.10;;
71303;SDS011;59091;47.446;19.148;2023-12-14T11:50:37;21.48;;;11.70;;
71303;SDS011;59091;47.446;19.148;2023-12-14T11:53:03;13.27;;;9.95;;
71303;SDS011;59091;47.446;19.148;2023-12-14T11:55:29;17.73;;;11.48;;
71303;SDS011;59091;47.446;19.148;2023-12-14T11:57:59;17.42;;;10.98;;
71303;SDS011;59091;47.446;19.148;2023-12-14T12:00:25;18.00;;;11.80;;
71303;SDS011;59091;47.446;19.148;2023-12-14T12:02:52;17.40;;;10.30;;
71303;SDS011;59091;47.446;19.148;2023-12-14T12:05:35;15.75;;;10.73;;
71303;SDS011;59091;47.446;19.148;2023-12-14T12:08:01;17.27;;;11.40;;
71303;SDS011;59091;47.446;19.148;2023-12-14T12:10:28;17.88;;;11.68;;
71303;SDS011;59091;47.446;19.148;2023-12-14T12:13:03;16.20;;;11.13;;
71303;SDS011;59091;47.446;19.148;2023-12-14T12:15:31;16.92;;;11.48;;
71303;SDS011;59091;47.446;19.148;2023-12-14T12:17:58;18.10;;;12.23;;
71303;SDS011;59091;47.446;19.148;2023-12-14T12:20:23;22.85;;;12.50;;
71303;SDS011;59091;47.446;19.148;2023-12-14T12:22:50;19.70;;;11.63;;
71303;SDS011;59091;47.446;19.148;2023-12-14T12:25:16;16.60;;;11.50;;
71303;SDS011;59091;47.446;19.148;2023-12-14T12:27:41;17.45;;;11.63;;
71303;SDS011;59091;47.446;19.148;2023-12-14T12:30:07;17.65;;;11.15;;
71303;SDS011;59091;47.446;19.148;2023-12-14T12:32:33;16.02;;;11.57;;
71303;SDS011;59091;47.446;19.148;2023-12-14T12:34:58;20.13;;;12.15;;
71303;SDS011;59091;47.446;19.148;2023-12-14T12:37:24;18.27;;;12.07;;
71303;SDS011;59091;47.446;19.148;2023-12-14T12:39:49;16.95;;;11.18;;
71303;SDS011;59091;47.446;19.148;2023-12-14T12:42:15;18.13;;;11.70;;
71303;SDS011;59091;47.446;19.148;2023-12-14T12:44:41;19.60;;;11.10;;
71303;SDS011;59091;47.446;19.148;2023-12-14T12:47:06;16.95;;;11.25;;
71303;SDS011;59091;47.446;19.148;2023-12-14T12:49:31;18.75;;;11.13;;
71303;SDS011;59091;47.446;19.148;2023-12-14T12:51:57;18.00;;;11.60;;
71303;SDS011;59091;47.446;19.148;2023-12-14T12:54:22;18.25;;;11.48;;
71303;SDS011;59091;47.446;19.148;2023-12-14T12:56:48;20.25;;;11.02;;
71303;SDS011;59091;47.446;19.148;2023-12-14T12:59:13;21.00;;;11.85;;
71303;SDS011;59091;47.446;19.148;2023-12-14T13:01:39;17.58;;;11.77;;
71303;SDS011;59091;47.446;19.148;2023-12-14T13:04:05;16.45;;;10.95;;
71303;SDS011;59091;47.446;19.148;2023-12-14T13:06:43;23.67;;;11.73;;
71303;SDS011;59091;47.446;19.148;2023-12-14T13:09:08;20.05;;;11.40;;
71303;SDS011;59091;47.446;19.148;2023-12-14T13:11:33;18.02;;;11.48;;
71303;SDS011;59091;47.446;19.148;2023-12-14T13:13:59;17.00;;;11.27;;
71303;SDS011;59091;47.446;19.148;2023-12-14T13:16:27;18.25;;;11.38;;
71303;SDS011;59091;47.446;19.148;2023-12-14T13:18:52;16.30;;;11.00;;
71303;SDS011;59091;47.446;19.148;2023-12-14T13:21:18;16.88;;;11.63;;
71303;SDS011;59091;47.446;19.148;2023-12-14T13:23:45;19.15;;;12.13;;
71303;SDS011;59091;47.446;19.148;2023-12-14T13:26:10;16.48;;;11.23;;
71303;SDS011;59091;47.446;19.148;2023-12-14T13:28:36;23.17;;;11.68;;
71303;SDS011;59091;47.446;19.148;2023-12-14T13:31:01;17.25;;;11.35;;
71303;SDS011;59091;47.446;19.148;2023-12-14T13:33:26;18.55;;;12.07;;
71303;SDS011;59091;47.446;19.148;2023-12-14T13:35:52;17.83;;;12.15;;
71303;SDS011;59091;47.446;19.148;2023-12-14T13:38:17;17.13;;;11.07;;
71303;SDS011;59091;47.446;19.148;2023-12-14T13:40:43;19.08;;;11.98;;
71303;SDS011;59091;47.446;19.148;2023-12-14T13:43:08;20.50;;;11.27;;
71303;SDS011;59091;47.446;19.148;2023-12-14T13:45:36;16.65;;;11.20;;
71303;SDS011;59091;47.446;19.148;2023-12-14T13:48:04;17.52;;;12.05;;
71303;SDS011;59091;47.446;19.148;2023-12-14T13:50:29;18.65;;;11.52;;
71303;SDS011;59091;47.446;19.148;2023-12-14T13:52:55;19.88;;;12.15;;
71303;SDS011;59091;47.446;19.148;2023-12-14T13:55:21;18.67;;;12.13;;
71303;SDS011;59091;47.446;19.148;2023-12-14T13:57:46;19.35;;;12.27;;
71303;SDS011;59091;47.446;19.148;2023-12-14T14:00:13;18.88;;;12.18;;
71303;SDS011;59091;47.446;19.148;2023-12-14T14:02:38;20.50;;;12.07;;
71303;SDS011;59091;47.446;19.148;2023-12-14T14:05:04;19.42;;;12.63;;
71303;SDS011;59091;47.446;19.148;2023-12-14T14:07:30;19.40;;;11.80;;
71303;SDS011;59091;47.446;19.148;2023-12-14T14:09:56;19.15;;;12.48;;
71303;SDS011;59091;47.446;19.148;2023-12-14T14:12:22;19.75;;;12.10;;